Clifton, New Jersey
Current Conditions -  °F | °C
As of 2:51 AM on Thursday 27 Nov 2014 (Local Time) from KTEB Reporting Station
Overcast Overcast  
Wind Chill: 32°   Ceiling: 8500
Heat Index: 36°   Visibility: 10mi
Dew Point: 30°   Wind: 5mph
Humidity: 79%   Direction: 330°NNW
Pressure: 29.9"   Gusts: NA
Location:  40.87°N, 74.16°W
Report Text: KTEB 270751Z 33004KT 10SM OVC085 02/M01 A2990 RMK AO2 SLP126 T00221011 $
Loading
Personal Weather Stations






























Interactive Weather Map New forecast layout! Learn more

10-Day Weather Forecast

Advertisements
Track Severe Weather on mobile